sensor_id;sensor_type;location;lat;lon;timestamp;pressure;altitude;pressure_sealevel;temperature;humidity
15568;BME280;7885;42.596;23.044;2024-02-15T00:00:39;93277.63;;;4.24;83.93
15568;BME280;7885;42.596;23.044;2024-02-15T00:03:08;93211.19;;;3.84;83.92
15568;BME280;7885;42.596;23.044;2024-02-15T00:05:38;93335.47;;;4.57;83.64
15568;BME280;7885;42.596;23.044;2024-02-15T00:08:05;93329.81;;;4.63;83.09
15568;BME280;7885;42.596;23.044;2024-02-15T00:10:32;93278.25;;;4.33;82.79
15568;BME280;7885;42.596;23.044;2024-02-15T00:12:59;93276.34;;;4.33;82.02
15568;BME280;7885;42.596;23.044;2024-02-15T00:15:27;93331.22;;;4.72;81.98
15568;BME280;7885;42.596;23.044;2024-02-15T00:17:54;93323.81;;;4.69;81.60
15568;BME280;7885;42.596;23.044;2024-02-15T00:20:21;93333.56;;;4.74;81.02
15568;BME280;7885;42.596;23.044;2024-02-15T00:22:48;93323.31;;;4.64;81.17
15568;BME280;7885;42.596;23.044;2024-02-15T00:25:16;93338.16;;;4.73;80.77
15568;BME280;7885;42.596;23.044;2024-02-15T00:27:42;93334.31;;;4.58;81.44
15568;BME280;7885;42.596;23.044;2024-02-15T00:30:10;93286.66;;;4.31;80.91
15568;BME280;7885;42.596;23.044;2024-02-15T00:32:38;93341.47;;;4.67;81.11
15568;BME280;7885;42.596;23.044;2024-02-15T00:35:05;93346.84;;;4.51;81.75
15568;BME280;7885;42.596;23.044;2024-02-15T00:37:35;93334.59;;;4.53;82.67
15568;BME280;7885;42.596;23.044;2024-02-15T00:40:01;93303.09;;;4.26;81.49
15568;BME280;7885;42.596;23.044;2024-02-15T00:42:29;93343.09;;;4.55;82.09
15568;BME280;7885;42.596;23.044;2024-02-15T00:44:57;93305.09;;;4.29;81.62
15568;BME280;7885;42.596;23.044;2024-02-15T00:47:24;93313.78;;;4.38;81.73
15568;BME280;7885;42.596;23.044;2024-02-15T00:49:52;93343.09;;;4.55;81.51
15568;BME280;7885;42.596;23.044;2024-02-15T00:52:19;93343.72;;;4.49;82.14
15568;BME280;7885;42.596;23.044;2024-02-15T00:54:46;93342.25;;;4.51;81.90
15568;BME280;7885;42.596;23.044;2024-02-15T00:57:12;93247.16;;;3.92;82.10
15568;BME280;7885;42.596;23.044;2024-02-15T00:59:39;93327.91;;;4.47;81.71
15568;BME280;7885;42.596;23.044;2024-02-15T01:02:06;93312.06;;;4.30;81.59
15568;BME280;7885;42.596;23.044;2024-02-15T01:04:34;93298.72;;;4.06;82.63
15568;BME280;7885;42.596;23.044;2024-02-15T01:07:02;93302.00;;;3.99;82.26
15568;BME280;7885;42.596;23.044;2024-02-15T01:09:29;93335.47;;;4.14;82.42
15568;BME280;7885;42.596;23.044;2024-02-15T01:11:56;93319.97;;;3.95;83.32
15568;BME280;7885;42.596;23.044;2024-02-15T01:14:23;93347.63;;;4.08;83.86
15568;BME280;7885;42.596;23.044;2024-02-15T01:16:55;93297.84;;;3.74;82.99
15568;BME280;7885;42.596;23.044;2024-02-15T01:19:22;93346.41;;;4.05;83.73
15568;BME280;7885;42.596;23.044;2024-02-15T01:21:48;93344.50;;;4.06;83.54
15568;BME280;7885;42.596;23.044;2024-02-15T01:24:17;93346.09;;;3.95;84.23
15568;BME280;7885;42.596;23.044;2024-02-15T01:26:43;93343.44;;;3.83;84.21
15568;BME280;7885;42.596;23.044;2024-02-15T01:29:13;93292.38;;;3.58;85.65
15568;BME280;7885;42.596;23.044;2024-02-15T01:31:39;93330.53;;;3.88;87.24
15568;BME280;7885;42.596;23.044;2024-02-15T01:34:06;93336.22;;;3.99;86.38
15568;BME280;7885;42.596;23.044;2024-02-15T01:36:34;93292.44;;;3.74;86.18
15568;BME280;7885;42.596;23.044;2024-02-15T01:39:01;93321.88;;;3.95;84.58
15568;BME280;7885;42.596;23.044;2024-02-15T01:41:29;93275.78;;;3.69;84.02
15568;BME280;7885;42.596;23.044;2024-02-15T01:43:56;93345.59;;;4.05;83.21
15568;BME280;7885;42.596;23.044;2024-02-15T01:46:24;93307.78;;;3.86;84.51
15568;BME280;7885;42.596;23.044;2024-02-15T01:48:51;93303.50;;;3.85;85.49
15568;BME280;7885;42.596;23.044;2024-02-15T01:51:18;93287.84;;;3.75;86.21
15568;BME280;7885;42.596;23.044;2024-02-15T01:53:45;93333.97;;;4.01;86.57
15568;BME280;7885;42.596;23.044;2024-02-15T01:56:13;93327.78;;;4.00;86.22
15568;BME280;7885;42.596;23.044;2024-02-15T01:58:42;93312.28;;;3.82;84.83
15568;BME280;7885;42.596;23.044;2024-02-15T02:01:11;93287.41;;;3.73;85.83
15568;BME280;7885;42.596;23.044;2024-02-15T02:03:39;93301.53;;;3.70;85.12
15568;BME280;7885;42.596;23.044;2024-02-15T02:06:05;93335.81;;;3.85;86.99
15568;BME280;7885;42.596;23.044;2024-02-15T02:08:33;93299.19;;;3.40;86.01
15568;BME280;7885;42.596;23.044;2024-02-15T02:11:12;93312.16;;;3.50;86.03
15568;BME280;7885;42.596;23.044;2024-02-15T02:13:39;93302.97;;;3.51;85.63
15568;BME280;7885;42.596;23.044;2024-02-15T02:16:25;93345.91;;;3.88;85.27
15568;BME280;7885;42.596;23.044;2024-02-15T02:18:53;93336.50;;;3.82;84.65
15568;BME280;7885;42.596;23.044;2024-02-15T02:21:20;93344.53;;;3.94;86.05
15568;BME280;7885;42.596;23.044;2024-02-15T02:23:52;93346.31;;;4.02;85.09
15568;BME280;7885;42.596;23.044;2024-02-15T02:26:21;93330.84;;;3.99;86.16
15568;BME280;7885;42.596;23.044;2024-02-15T02:28:48;93331.72;;;4.03;84.67
15568;BME280;7885;42.596;23.044;2024-02-15T02:31:15;93345.13;;;4.15;84.62
15568;BME280;7885;42.596;23.044;2024-02-15T02:33:42;93339.03;;;4.18;84.64
15568;BME280;7885;42.596;23.044;2024-02-15T02:36:13;93319.09;;;4.07;84.30
15568;BME280;7885;42.596;23.044;2024-02-15T02:38:40;93326.72;;;4.17;82.59
15568;BME280;7885;42.596;23.044;2024-02-15T02:41:10;93259.34;;;3.74;83.73
15568;BME280;7885;42.596;23.044;2024-02-15T02:43:39;93314.88;;;4.06;83.29
15568;BME280;7885;42.596;23.044;2024-02-15T02:46:05;93340.81;;;4.26;82.63
15568;BME280;7885;42.596;23.044;2024-02-15T02:48:32;93344.63;;;4.25;82.91
15568;BME280;7885;42.596;23.044;2024-02-15T02:50:59;93351.41;;;4.35;82.15
15568;BME280;7885;42.596;23.044;2024-02-15T02:53:26;93357.25;;;4.37;82.91
15568;BME280;7885;42.596;23.044;2024-02-15T02:55:52;93353.50;;;4.41;82.49
15568;BME280;7885;42.596;23.044;2024-02-15T02:58:19;93347.69;;;4.39;83.16
15568;BME280;7885;42.596;23.044;2024-02-15T03:00:47;93344.31;;;4.42;82.70
15568;BME280;7885;42.596;23.044;2024-02-15T03:03:14;93348.22;;;4.45;81.90
15568;BME280;7885;42.596;23.044;2024-02-15T03:05:41;93351.00;;;4.48;81.65
15568;BME280;7885;42.596;23.044;2024-02-15T03:08:08;93353.69;;;4.48;81.63
15568;BME280;7885;42.596;23.044;2024-02-15T03:10:35;93343.97;;;4.44;81.85
15568;BME280;7885;42.596;23.044;2024-02-15T03:13:02;93256.97;;;3.84;81.49
15568;BME280;7885;42.596;23.044;2024-02-15T03:15:30;93352.16;;;4.47;81.84
15568;BME280;7885;42.596;23.044;2024-02-15T03:17:59;93350.06;;;4.41;81.84
15568;BME280;7885;42.596;23.044;2024-02-15T03:20:32;93362.94;;;4.47;81.73
15568;BME280;7885;42.596;23.044;2024-02-15T03:23:00;93355.28;;;4.49;81.15
15568;BME280;7885;42.596;23.044;2024-02-15T03:25:28;93362.94;;;4.47;81.23
15568;BME280;7885;42.596;23.044;2024-02-15T03:27:56;93341.78;;;4.34;80.59
15568;BME280;7885;42.596;23.044;2024-02-15T03:30:24;93301.75;;;4.04;81.59
15568;BME280;7885;42.596;23.044;2024-02-15T03:32:51;93344.63;;;4.25;82.26
15568;BME280;7885;42.596;23.044;2024-02-15T03:35:21;93346.38;;;4.33;83.03
15568;BME280;7885;42.596;23.044;2024-02-15T03:37:48;93355.00;;;4.39;82.34
15568;BME280;7885;42.596;23.044;2024-02-15T03:40:16;93342.13;;;4.32;82.11
15568;BME280;7885;42.596;23.044;2024-02-15T03:42:43;93359.59;;;4.38;82.26
15568;BME280;7885;42.596;23.044;2024-02-15T03:45:10;93280.50;;;3.87;81.37
15568;BME280;7885;42.596;23.044;2024-02-15T03:47:37;93365.06;;;4.42;80.88
15568;BME280;7885;42.596;23.044;2024-02-15T03:50:04;93363.78;;;4.36;81.53
15568;BME280;7885;42.596;23.044;2024-02-15T03:52:35;93361.75;;;4.33;82.29
15568;BME280;7885;42.596;23.044;2024-02-15T03:55:02;93363.44;;;4.37;81.62
15568;BME280;7885;42.596;23.044;2024-02-15T03:57:29;93345.22;;;4.19;82.23
15568;BME280;7885;42.596;23.044;2024-02-15T03:59:56;93355.41;;;4.25;82.50
15568;BME280;7885;42.596;23.044;2024-02-15T04:02:24;93328.88;;;4.12;81.93
15568;BME280;7885;42.596;23.044;2024-02-15T04:04:52;93248.66;;;3.62;82.77
15568;BME280;7885;42.596;23.044;2024-02-15T04:07:20;93252.22;;;3.66;83.51
15568;BME280;7885;42.596;23.044;2024-02-15T04:09:48;93358.81;;;4.38;84.07
15568;BME280;7885;42.596;23.044;2024-02-15T04:12:15;93363.44;;;4.37;83.79
15568;BME280;7885;42.596;23.044;2024-02-15T04:14:42;93364.13;;;4.34;84.28
15568;BME280;7885;42.596;23.044;2024-02-15T04:17:10;93370.19;;;4.31;84.11
15568;BME280;7885;42.596;23.044;2024-02-15T04:19:39;93316.91;;;3.97;85.26
15568;BME280;7885;42.596;23.044;2024-02-15T04:22:06;93365.47;;;4.28;85.38
15568;BME280;7885;42.596;23.044;2024-02-15T04:24:33;93363.94;;;4.27;85.03
15568;BME280;7885;42.596;23.044;2024-02-15T04:27:05;93366.16;;;4.25;85.94
15568;BME280;7885;42.596;23.044;2024-02-15T04:29:33;93369.47;;;4.19;85.52
15568;BME280;7885;42.596;23.044;2024-02-15T04:32:00;93372.06;;;4.15;85.77
15568;BME280;7885;42.596;23.044;2024-02-15T04:34:26;93375.00;;;4.10;86.21
15568;BME280;7885;42.596;23.044;2024-02-15T04:36:53;93353.06;;;3.96;85.40
15568;BME280;7885;42.596;23.044;2024-02-15T04:39:21;93327.75;;;3.73;85.68
15568;BME280;7885;42.596;23.044;2024-02-15T04:41:52;93378.63;;;4.02;85.52
15568;BME280;7885;42.596;23.044;2024-02-15T04:44:20;93344.81;;;3.77;85.79
15568;BME280;7885;42.596;23.044;2024-02-15T04:46:48;93375.28;;;3.93;86.48
15568;BME280;7885;42.596;23.044;2024-02-15T04:49:15;93380.13;;;3.87;85.40
15568;BME280;7885;42.596;23.044;2024-02-15T04:51:42;93388.28;;;3.91;86.40
15568;BME280;7885;42.596;23.044;2024-02-15T04:54:09;93397.78;;;4.00;86.47
15568;BME280;7885;42.596;23.044;2024-02-15T04:56:38;93390.06;;;3.99;85.27
15568;BME280;7885;42.596;23.044;2024-02-15T04:59:05;93399.16;;;3.94;84.75
15568;BME280;7885;42.596;23.044;2024-02-15T05:01:35;93353.63;;;3.62;85.13
15568;BME280;7885;42.596;23.044;2024-02-15T05:04:02;93404.66;;;3.98;85.31
15568;BME280;7885;42.596;23.044;2024-02-15T05:06:32;93390.56;;;3.89;84.51
15568;BME280;7885;42.596;23.044;2024-02-15T05:08:59;93379.81;;;3.77;83.61
15568;BME280;7885;42.596;23.044;2024-02-15T05:11:26;93296.31;;;3.09;82.59
15568;BME280;7885;42.596;23.044;2024-02-15T05:13:54;93413.91;;;3.73;83.84
15568;BME280;7885;42.596;23.044;2024-02-15T05:16:21;93413.25;;;3.64;84.91
15568;BME280;7885;42.596;23.044;2024-02-15T05:18:49;93418.09;;;3.58;85.07
15568;BME280;7885;42.596;23.044;2024-02-15T05:21:15;93414.81;;;3.65;84.60
15568;BME280;7885;42.596;23.044;2024-02-15T05:23:42;93345.84;;;3.20;84.17
15568;BME280;7885;42.596;23.044;2024-02-15T05:26:11;93424.91;;;3.68;84.56
15568;BME280;7885;42.596;23.044;2024-02-15T05:32:20;93406.78;;;3.40;84.36
15568;BME280;7885;42.596;23.044;2024-02-15T05:34:48;93413.06;;;3.44;83.40
15568;BME280;7885;42.596;23.044;2024-02-15T05:37:15;93432.00;;;3.36;83.74
15568;BME280;7885;42.596;23.044;2024-02-15T05:39:42;93398.59;;;3.13;84.41
15568;BME280;7885;42.596;23.044;2024-02-15T05:42:10;93396.25;;;3.11;85.63
15568;BME280;7885;42.596;23.044;2024-02-15T05:44:37;93452.16;;;3.30;84.33
15568;BME280;7885;42.596;23.044;2024-02-15T05:47:04;93420.66;;;3.06;85.64
15568;BME280;7885;42.596;23.044;2024-02-15T05:49:30;93453.16;;;3.25;86.81
15568;BME280;7885;42.596;23.044;2024-02-15T05:51:59;93405.88;;;3.12;87.16
15568;BME280;7885;42.596;23.044;2024-02-15T05:54:26;93444.66;;;3.47;86.35
15568;BME280;7885;42.596;23.044;2024-02-15T05:56:53;93423.81;;;3.44;85.07
15568;BME280;7885;42.596;23.044;2024-02-15T05:59:20;93429.41;;;3.64;85.42
15568;BME280;7885;42.596;23.044;2024-02-15T06:01:46;93448.88;;;3.85;83.92
15568;BME280;7885;42.596;23.044;2024-02-15T06:04:15;93443.63;;;3.76;83.52
15568;BME280;7885;42.596;23.044;2024-02-15T06:06:42;93464.16;;;3.93;83.56
15568;BME280;7885;42.596;23.044;2024-02-15T06:09:15;93459.28;;;3.98;83.65
15568;BME280;7885;42.596;23.044;2024-02-15T06:11:42;93458.63;;;4.01;82.95
15568;BME280;7885;42.596;23.044;2024-02-15T06:14:10;93464.31;;;4.12;82.71
15568;BME280;7885;42.596;23.044;2024-02-15T06:16:42;93460.25;;;4.18;82.32
15568;BME280;7885;42.596;23.044;2024-02-15T06:19:09;93463.16;;;4.25;82.24
15568;BME280;7885;42.596;23.044;2024-02-15T06:21:36;93417.22;;;4.06;81.84
15568;BME280;7885;42.596;23.044;2024-02-15T06:24:03;93437.16;;;4.17;81.83
15568;BME280;7885;42.596;23.044;2024-02-15T06:26:31;93461.28;;;4.41;82.02
15568;BME280;7885;42.596;23.044;2024-02-15T06:29:00;93475.63;;;4.57;81.30
15568;BME280;7885;42.596;23.044;2024-02-15T06:31:44;93438.09;;;4.37;79.97
15568;BME280;7885;42.596;23.044;2024-02-15T06:34:27;93476.94;;;4.64;80.06
15568;BME280;7885;42.596;23.044;2024-02-15T06:37:34;93492.63;;;4.74;79.87
15568;BME280;7885;42.596;23.044;2024-02-15T06:40:19;93449.47;;;4.58;78.94
15568;BME280;7885;42.596;23.044;2024-02-15T06:42:47;93469.75;;;4.68;78.27
15568;BME280;7885;42.596;23.044;2024-02-15T06:45:14;93455.16;;;4.69;78.49
15568;BME280;7885;42.596;23.044;2024-02-15T06:47:41;93495.41;;;5.05;78.14
15568;BME280;7885;42.596;23.044;2024-02-15T06:50:10;93502.09;;;5.11;77.69
15568;BME280;7885;42.596;23.044;2024-02-15T06:52:37;93469.13;;;5.02;76.82
15568;BME280;7885;42.596;23.044;2024-02-15T06:55:04;93442.66;;;4.92;76.47
15568;BME280;7885;42.596;23.044;2024-02-15T06:57:30;93351.78;;;4.33;76.64
15568;BME280;7885;42.596;23.044;2024-02-15T06:59:58;93384.09;;;4.61;74.23
15568;BME280;7885;42.596;23.044;2024-02-15T07:02:25;93477.50;;;5.28;74.32
15568;BME280;7885;42.596;23.044;2024-02-15T07:04:52;93497.53;;;5.58;73.53
15568;BME280;7885;42.596;23.044;2024-02-15T07:07:18;93449.22;;;5.38;73.32
15568;BME280;7885;42.596;23.044;2024-02-15T07:09:47;93489.94;;;5.80;73.77
15568;BME280;7885;42.596;23.044;2024-02-15T07:12:13;93489.34;;;6.02;74.13
15568;BME280;7885;42.596;23.044;2024-02-15T07:14:40;93479.16;;;6.30;72.47
15568;BME280;7885;42.596;23.044;2024-02-15T07:17:09;93437.63;;;6.38;71.15
15568;BME280;7885;42.596;23.044;2024-02-15T07:19:36;93511.03;;;7.17;70.11
15568;BME280;7885;42.596;23.044;2024-02-15T07:22:03;93470.44;;;7.17;67.93
15568;BME280;7885;42.596;23.044;2024-02-15T07:24:30;93453.34;;;7.55;66.03
15568;BME280;7885;42.596;23.044;2024-02-15T07:26:57;93435.28;;;7.89;64.58
15568;BME280;7885;42.596;23.044;2024-02-15T07:29:24;93506.66;;;8.75;62.21
15568;BME280;7885;42.596;23.044;2024-02-15T07:31:51;93492.28;;;10.26;60.36
15568;BME280;7885;42.596;23.044;2024-02-15T07:34:20;93483.09;;;14.42;48.35
15568;BME280;7885;42.596;23.044;2024-02-15T07:36:47;93468.38;;;17.74;39.54
15568;BME280;7885;42.596;23.044;2024-02-15T07:39:14;93431.59;;;20.68;31.61
15568;BME280;7885;42.596;23.044;2024-02-15T07:41:48;93466.81;;;23.48;26.78
15568;BME280;7885;42.596;23.044;2024-02-15T07:44:16;93462.03;;;25.35;23.46
15568;BME280;7885;42.596;23.044;2024-02-15T07:46:43;93405.75;;;26.13;22.00
15568;BME280;7885;42.596;23.044;2024-02-15T07:49:10;93425.78;;;27.71;20.76
15568;BME280;7885;42.596;23.044;2024-02-15T07:51:38;93457.31;;;29.12;18.70
15568;BME280;7885;42.596;23.044;2024-02-15T07:54:05;93437.81;;;29.93;18.26
15568;BME280;7885;42.596;23.044;2024-02-15T07:56:32;93316.81;;;29.69;17.18
15568;BME280;7885;42.596;23.044;2024-02-15T07:59:00;93460.94;;;31.08;16.94
15568;BME280;7885;42.596;23.044;2024-02-15T08:01:28;93450.88;;;31.57;16.39
15568;BME280;7885;42.596;23.044;2024-02-15T08:03:56;93417.28;;;31.76;16.03
15568;BME280;7885;42.596;23.044;2024-02-15T08:06:23;93448.13;;;32.44;15.57
15568;BME280;7885;42.596;23.044;2024-02-15T08:08:54;93455.38;;;33.05;15.30
15568;BME280;7885;42.596;23.044;2024-02-15T08:11:21;93444.50;;;33.20;14.55
15568;BME280;7885;42.596;23.044;2024-02-15T08:13:50;93429.84;;;32.62;14.86
15568;BME280;7885;42.596;23.044;2024-02-15T08:16:20;93436.16;;;32.74;14.85
15568;BME280;7885;42.596;23.044;2024-02-15T08:18:48;93443.91;;;32.68;14.65
15568;BME280;7885;42.596;23.044;2024-02-15T08:21:18;93446.09;;;32.80;14.30
15568;BME280;7885;42.596;23.044;2024-02-15T08:23:51;93426.75;;;32.95;14.33
15568;BME280;7885;42.596;23.044;2024-02-15T08:26:19;93440.31;;;32.97;14.50
15568;BME280;7885;42.596;23.044;2024-02-15T08:28:46;93398.16;;;33.10;14.45
15568;BME280;7885;42.596;23.044;2024-02-15T08:31:12;93435.78;;;33.67;14.09
15568;BME280;7885;42.596;23.044;2024-02-15T08:33:40;93432.25;;;33.61;13.53
15568;BME280;7885;42.596;23.044;2024-02-15T08:36:08;93430.19;;;34.04;13.75
15568;BME280;7885;42.596;23.044;2024-02-15T08:41:59;93409.94;;;34.00;13.49
15568;BME280;7885;42.596;23.044;2024-02-15T08:44:25;93422.81;;;34.20;13.79
15568;BME280;7885;42.596;23.044;2024-02-15T08:46:52;93436.59;;;34.61;13.67
15568;BME280;7885;42.596;23.044;2024-02-15T08:49:19;93431.91;;;34.82;12.80
15568;BME280;7885;42.596;23.044;2024-02-15T08:51:46;93416.91;;;35.00;13.03
15568;BME280;7885;42.596;23.044;2024-02-15T08:54:12;93417.84;;;32.86;13.63
15568;BME280;7885;42.596;23.044;2024-02-15T08:56:39;93417.34;;;32.87;13.74
15568;BME280;7885;42.596;23.044;2024-02-15T08:59:07;93422.41;;;32.65;14.12
15568;BME280;7885;42.596;23.044;2024-02-15T09:01:34;93377.19;;;33.00;14.04
15568;BME280;7885;42.596;23.044;2024-02-15T09:04:00;93418.63;;;33.65;13.42
15568;BME280;7885;42.596;23.044;2024-02-15T09:06:27;93424.56;;;34.23;13.51
15568;BME280;7885;42.596;23.044;2024-02-15T09:08:54;93426.19;;;34.69;13.06
15568;BME280;7885;42.596;23.044;2024-02-15T09:11:22;93420.25;;;34.54;13.02
15568;BME280;7885;42.596;23.044;2024-02-15T09:13:49;93427.06;;;34.64;13.27
15568;BME280;7885;42.596;23.044;2024-02-15T09:16:18;93416.75;;;35.11;13.00
15568;BME280;7885;42.596;23.044;2024-02-15T09:18:47;93393.47;;;35.18;12.64
15568;BME280;7885;42.596;23.044;2024-02-15T09:21:13;93370.97;;;34.49;12.70
15568;BME280;7885;42.596;23.044;2024-02-15T09:23:40;93411.22;;;34.87;12.74
15568;BME280;7885;42.596;23.044;2024-02-15T09:26:07;93406.09;;;34.54;13.06
15568;BME280;7885;42.596;23.044;2024-02-15T09:28:35;93401.31;;;33.49;13.51
15568;BME280;7885;42.596;23.044;2024-02-15T09:31:02;93356.88;;;33.31;13.63
15568;BME280;7885;42.596;23.044;2024-02-15T09:33:30;93357.94;;;33.90;13.64
15568;BME280;7885;42.596;23.044;2024-02-15T09:35:57;93360.28;;;33.24;13.49
15568;BME280;7885;42.596;23.044;2024-02-15T09:38:23;93380.50;;;33.95;13.17
15568;BME280;7885;42.596;23.044;2024-02-15T09:44:14;93385.19;;;33.44;13.69
15568;BME280;7885;42.596;23.044;2024-02-15T09:46:43;93386.25;;;32.93;13.51
15568;BME280;7885;42.596;23.044;2024-02-15T09:49:13;93335.94;;;32.43;13.91
15568;BME280;7885;42.596;23.044;2024-02-15T09:51:42;93343.28;;;33.11;13.98
15568;BME280;7885;42.596;23.044;2024-02-15T09:54:09;93373.69;;;34.04;13.91
15568;BME280;7885;42.596;23.044;2024-02-15T09:56:40;93350.09;;;33.83;13.53
15568;BME280;7885;42.596;23.044;2024-02-15T09:59:07;93374.03;;;33.58;13.60
15568;BME280;7885;42.596;23.044;2024-02-15T10:01:35;93377.16;;;33.54;13.68
15568;BME280;7885;42.596;23.044;2024-02-15T10:04:05;93328.34;;;33.78;13.62
15568;BME280;7885;42.596;23.044;2024-02-15T10:06:34;93294.00;;;33.74;13.48
15568;BME280;7885;42.596;23.044;2024-02-15T10:09:23;93376.66;;;34.12;13.45
15568;BME280;7885;42.596;23.044;2024-02-15T10:18:33;93362.59;;;34.43;12.98
15568;BME280;7885;42.596;23.044;2024-02-15T10:21:00;93346.28;;;33.80;13.05
15568;BME280;7885;42.596;23.044;2024-02-15T10:23:28;93348.91;;;34.10;13.22
15568;BME280;7885;42.596;23.044;2024-02-15T10:25:55;93351.75;;;34.10;13.47
15568;BME280;7885;42.596;23.044;2024-02-15T10:28:23;93327.75;;;33.85;13.24
15568;BME280;7885;42.596;23.044;2024-02-15T10:30:51;93338.56;;;34.18;13.41
15568;BME280;7885;42.596;23.044;2024-02-15T10:33:19;93334.22;;;34.17;13.49
15568;BME280;7885;42.596;23.044;2024-02-15T10:35:47;93312.16;;;33.97;13.59
15568;BME280;7885;42.596;23.044;2024-02-15T10:38:14;93341.63;;;33.83;13.96
15568;BME280;7885;42.596;23.044;2024-02-15T10:40:42;93263.72;;;33.37;13.69
15568;BME280;7885;42.596;23.044;2024-02-15T10:43:11;93338.13;;;33.77;13.42
15568;BME280;7885;42.596;23.044;2024-02-15T10:45:39;93326.69;;;33.45;13.92
15568;BME280;7885;42.596;23.044;2024-02-15T10:48:08;93314.38;;;33.24;13.84
15568;BME280;7885;42.596;23.044;2024-02-15T10:50:36;93318.75;;;33.68;13.93
15568;BME280;7885;42.596;23.044;2024-02-15T10:53:11;93245.88;;;33.04;13.85
15568;BME280;7885;42.596;23.044;2024-02-15T10:59:10;93311.69;;;33.56;13.87
15568;BME280;7885;42.596;23.044;2024-02-15T11:01:42;93273.03;;;33.08;14.06
15568;BME280;7885;42.596;23.044;2024-02-15T11:04:14;93295.19;;;32.74;14.27
15568;BME280;7885;42.596;23.044;2024-02-15T11:06:43;93264.56;;;32.65;14.24
15568;BME280;7885;42.596;23.044;2024-02-15T11:12:32;93309.06;;;32.12;14.79
15568;BME280;7885;42.596;23.044;2024-02-15T11:15:00;93302.75;;;31.60;14.78
15568;BME280;7885;42.596;23.044;2024-02-15T11:17:47;93226.16;;;31.31;14.73
15568;BME280;7885;42.596;23.044;2024-02-15T11:20:46;93298.50;;;32.18;14.78
15568;BME280;7885;42.596;23.044;2024-02-15T11:23:24;93298.66;;;32.31;14.54
15568;BME280;7885;42.596;23.044;2024-02-15T11:25:52;93238.00;;;31.95;14.81
15568;BME280;7885;42.596;23.044;2024-02-15T11:28:39;93288.84;;;31.73;14.62
15568;BME280;7885;42.596;23.044;2024-02-15T11:34:44;93290.50;;;30.99;15.56
15568;BME280;7885;42.596;23.044;2024-02-15T11:41:02;93277.56;;;29.80;16.10
15568;BME280;7885;42.596;23.044;2024-02-15T11:43:50;93251.09;;;28.40;16.85
15568;BME280;7885;42.596;23.044;2024-02-15T11:46:29;93268.97;;;27.80;17.87
15568;BME280;7885;42.596;23.044;2024-02-15T11:48:59;93274.50;;;27.23;18.28
15568;BME280;7885;42.596;23.044;2024-02-15T11:51:27;93164.06;;;25.60;19.13
15568;BME280;7885;42.596;23.044;2024-02-15T11:54:05;93259.69;;;25.37;19.99
15568;BME280;7885;42.596;23.044;2024-02-15T11:56:49;93274.09;;;24.59;20.92
15568;BME280;7885;42.596;23.044;2024-02-15T11:59:19;93236.97;;;24.24;21.11
15568;BME280;7885;42.596;23.044;2024-02-15T12:01:59;93273.09;;;23.58;22.18
15568;BME280;7885;42.596;23.044;2024-02-15T12:04:43;93267.13;;;23.41;22.06
15568;BME280;7885;42.596;23.044;2024-02-15T12:07:27;93231.38;;;23.07;22.45
15568;BME280;7885;42.596;23.044;2024-02-15T12:10:16;93269.06;;;22.81;23.19
15568;BME280;7885;42.596;23.044;2024-02-15T12:13:00;93260.13;;;22.86;23.13
15568;BME280;7885;42.596;23.044;2024-02-15T12:15:56;93222.47;;;22.21;23.82
15568;BME280;7885;42.596;23.044;2024-02-15T12:18:42;93210.44;;;21.97;24.37
15568;BME280;7885;42.596;23.044;2024-02-15T12:21:12;93187.19;;;21.94;24.03
15568;BME280;7885;42.596;23.044;2024-02-15T12:23:41;93248.84;;;22.53;23.52
15568;BME280;7885;42.596;23.044;2024-02-15T12:26:07;93240.81;;;22.19;24.53
15568;BME280;7885;42.596;23.044;2024-02-15T12:28:34;93220.31;;;22.16;24.29
15568;BME280;7885;42.596;23.044;2024-02-15T12:31:02;93259.44;;;22.09;24.69
15568;BME280;7885;42.596;23.044;2024-02-15T12:33:32;93243.66;;;21.88;24.07
15568;BME280;7885;42.596;23.044;2024-02-15T12:36:07;93254.09;;;21.84;24.69
15568;BME280;7885;42.596;23.044;2024-02-15T12:38:34;93228.50;;;21.61;24.52
15568;BME280;7885;42.596;23.044;2024-02-15T12:41:04;93251.75;;;21.64;25.15
15568;BME280;7885;42.596;23.044;2024-02-15T12:43:43;93250.47;;;21.56;24.65
15568;BME280;7885;42.596;23.044;2024-02-15T12:46:10;93249.06;;;21.51;25.32
15568;BME280;7885;42.596;23.044;2024-02-15T12:48:38;93205.53;;;21.12;25.78
15568;BME280;7885;42.596;23.044;2024-02-15T12:51:14;93245.69;;;21.47;25.26
15568;BME280;7885;42.596;23.044;2024-02-15T12:54:08;93242.00;;;21.50;25.09
15568;BME280;7885;42.596;23.044;2024-02-15T12:56:35;93251.16;;;21.38;25.83
15568;BME280;7885;42.596;23.044;2024-02-15T12:59:02;93224.66;;;21.28;25.59
15568;BME280;7885;42.596;23.044;2024-02-15T13:01:29;93234.28;;;21.45;25.21
15568;BME280;7885;42.596;23.044;2024-02-15T13:03:56;93201.28;;;21.20;25.11
15568;BME280;7885;42.596;23.044;2024-02-15T13:06:25;93232.94;;;21.19;25.69
15568;BME280;7885;42.596;23.044;2024-02-15T13:08:52;93210.06;;;20.32;25.52
15568;BME280;7885;42.596;23.044;2024-02-15T13:11:18;93198.09;;;20.56;25.76
15568;BME280;7885;42.596;23.044;2024-02-15T13:13:45;93175.03;;;20.50;26.05
15568;BME280;7885;42.596;23.044;2024-02-15T13:16:12;93195.53;;;20.40;26.02
15568;BME280;7885;42.596;23.044;2024-02-15T13:18:39;93156.22;;;19.67;26.65
15568;BME280;7885;42.596;23.044;2024-02-15T13:21:06;93193.56;;;19.59;27.50
15568;BME280;7885;42.596;23.044;2024-02-15T13:23:37;93134.66;;;19.03;27.86
15568;BME280;7885;42.596;23.044;2024-02-15T13:26:03;93176.88;;;19.38;27.24
15568;BME280;7885;42.596;23.044;2024-02-15T13:28:30;93183.53;;;19.40;27.05
15568;BME280;7885;42.596;23.044;2024-02-15T13:30:59;93183.75;;;19.33;27.81
15568;BME280;7885;42.596;23.044;2024-02-15T13:33:26;93183.19;;;19.38;27.52
15568;BME280;7885;42.596;23.044;2024-02-15T13:35:57;93220.38;;;19.59;27.85
15568;BME280;7885;42.596;23.044;2024-02-15T13:38:23;93227.91;;;19.46;27.94
15568;BME280;7885;42.596;23.044;2024-02-15T13:40:51;93179.56;;;19.03;27.62
15568;BME280;7885;42.596;23.044;2024-02-15T13:43:21;93210.66;;;19.04;28.46
15568;BME280;7885;42.596;23.044;2024-02-15T13:45:47;93183.09;;;18.91;28.91
15568;BME280;7885;42.596;23.044;2024-02-15T13:48:14;93171.03;;;18.73;28.57